Weather at Saint Cloud Regional Airport

Public forecast

Using degrees Fahrenheit for public forecast. Weather courtesy of forecast.io.

Current aviation weather report (METAR) for Saint Cloud Regional Airport

Retrieved 2020/11/25 22:53 UTC (1 hour ago):

KSTC 252253Z 18007KT 10SM OVC014 02/M01 A2985 RMK AO2 SLP127 T00171011

Aviation forecast (TAF) for Saint Cloud Regional Airport

Retrieved 2020/11/25 18:30 UTC (5 hours ago):

TAF KSTC 251725Z 2518/2618 00000KT P6SM OVC007 TEMPO 2518/2522 SCT007 OVC020 FM252200 00000KT P6SM OVC020 FM261100 17005KT P6SM SCT020 FM261400 22005KT P6SM SCT020 FM261700 26007KT P6SM SCT030